Time;durP1;ratioP1;P1;durP2;ratioP2;P2;SDS_P1;SDS_P2;PMS_P1;PMS_P2;Temp;Humidity;BMP_temperature;BMP_pressure;BME280_temperature;BME280_humidity;BME280_pressure;Samples;Min_cycle;Max_cycle;Signal;HPM_P1;HPM_P2
2022/06/04 00:02:22;;;;;;;;;;;;;;;23.31;79.16;97427.09;593877;239;68683;-72
2022/06/04 00:04:49;;;;;;;;;;;;;;;23.31;79.17;97429.78;593764;239;68729;-72
2022/06/04 00:07:17;;;;;;;;;;;;;;;23.30;79.19;97415.57;593837;239;65376;-72
2022/06/04 00:15:29;;;;;;;;;;;;;;;23.30;79.19;97407.53;593842;239;69075;-72
2022/06/04 00:17:44;;;;;;;;;;;;;;;23.31;79.20;97413.69;593864;239;67667;-68
2022/06/04 00:20:12;;;;;;;;;;;;;;;23.31;79.19;97411.00;593523;239;66575;-68
2022/06/04 00:22:40;;;;;;;;;;;;;;;23.31;79.32;97405.64;593753;237;63032;-68
2022/06/04 00:25:08;;;;;;;;;;;;;;;23.31;79.33;97402.95;593905;239;66114;-68
2022/06/04 00:27:35;;;;;;;;;;;;;;;23.30;79.32;97402.16;593901;239;68480;-68
2022/06/04 00:30:05;;;;;;;;;;;;;;;23.31;79.27;97411.00;593896;239;65576;-68
2022/06/04 00:32:34;;;;;;;;;;;;;;;23.30;79.26;97407.53;593880;239;66398;-68
2022/06/04 00:35:05;;;;;;;;;;;;;;;23.31;79.33;97414.48;592927;239;66156;-68
2022/06/04 00:37:33;;;;;;;;;;;;;;;23.30;79.28;97410.20;589351;238;65450;-69
2022/06/04 00:40:02;;;;;;;;;;;;;;;23.31;79.27;97406.44;589184;238;68535;-69
2022/06/04 00:42:29;;;;;;;;;;;;;;;23.30;79.27;97407.53;589097;238;68485;-69
2022/06/04 00:45:14;;;;;;;;;;;;;;;23.31;79.31;97411.00;589129;238;65425;-69
2022/06/04 00:47:42;;;;;;;;;;;;;;;23.32;79.34;97407.23;592765;236;68225;-69
2022/06/04 00:50:10;;;;;;;;;;;;;;;23.31;79.36;97400.28;589324;237;66280;-69
2022/06/04 00:52:38;;;;;;;;;;;;;;;23.30;79.35;97404.84;589396;238;65391;-69
2022/06/04 00:55:06;;;;;;;;;;;;;;;23.30;79.28;97404.84;589075;238;68689;-69
2022/06/04 00:57:38;;;;;;;;;;;;;;;23.31;79.28;97408.32;589239;238;68863;-74
2022/06/04 01:00:07;;;;;;;;;;;;;;;23.30;79.46;97404.84;589107;238;63024;-72
2022/06/04 01:02:42;;;;;;;;;;;;;;;23.30;79.36;97396.80;589927;236;66485;-72
2022/06/04 01:05:14;;;;;;;;;;;;;;;23.30;79.31;97390.61;589200;238;68482;-73
2022/06/04 01:07:49;;;;;;;;;;;;;;;23.31;79.35;97394.91;589174;237;65156;-73
2022/06/04 01:10:24;;;;;;;;;;;;;;;23.30;79.41;97386.08;589247;236;68838;-74
2022/06/04 01:13:00;;;;;;;;;;;;;;;23.31;79.43;97384.19;589933;237;66427;-73
2022/06/04 01:15:32;;;;;;;;;;;;;;;23.31;79.40;97381.51;589793;238;63081;-73
2022/06/04 01:18:18;;;;;;;;;;;;;;;23.30;79.33;97380.71;589200;237;68555;-73
2022/06/04 01:20:56;;;;;;;;;;;;;;;23.31;79.37;97370.78;589115;237;68516;-68
2022/06/04 01:23:38;;;;;;;;;;;;;;;23.30;79.36;97377.20;589157;238;63276;-68
2022/06/04 01:26:17;;;;;;;;;;;;;;;23.29;79.49;97367.56;589329;237;69045;-68
2022/06/04 01:28:46;;;;;;;;;;;;;;;23.29;79.47;97368.36;589125;237;68509;-68
2022/06/04 01:31:15;;;;;;;;;;;;;;;23.29;79.46;97367.56;589143;237;63442;-68
2022/06/04 01:33:44;;;;;;;;;;;;;;;23.29;79.37;97359.52;589163;237;68768;-68
2022/06/04 01:36:13;;;;;;;;;;;;;;;23.29;79.48;97352.27;592330;237;68670;-68
2022/06/04 01:38:50;;;;;;;;;;;;;;;23.29;79.53;97346.91;593984;237;65357;-68
2022/06/04 01:41:22;;;;;;;;;;;;;;;23.29;79.44;97351.48;593960;237;68371;-68
2022/06/04 01:43:52;;;;;;;;;;;;;;;23.29;79.45;97354.16;593968;237;66205;-68
2022/06/04 01:46:24;;;;;;;;;;;;;;;23.29;79.48;97349.59;593966;237;65485;-68
2022/06/04 01:48:53;;;;;;;;;;;;;;;23.30;79.46;97353.06;594010;237;66191;-68
2022/06/04 01:51:22;;;;;;;;;;;;;;;23.29;79.48;97354.95;593768;237;66171;-68
2022/06/04 01:53:51;;;;;;;;;;;;;;;23.30;79.51;97351.21;593889;237;66350;-68
2022/06/04 01:56:20;;;;;;;;;;;;;;;23.29;79.40;97356.84;594025;237;66176;-68
2022/06/04 01:59:06;;;;;;;;;;;;;;;23.30;79.54;97363.80;593762;237;68462;-68
2022/06/04 02:01:34;;;;;;;;;;;;;;;23.29;79.51;97362.20;593937;237;65387;-68
2022/06/04 02:04:06;;;;;;;;;;;;;;;23.30;79.52;97356.58;593919;237;66365;-68
2022/06/04 02:06:35;;;;;;;;;;;;;;;23.29;79.42;97359.52;593952;237;68502;-68
2022/06/04 02:09:04;;;;;;;;;;;;;;;23.29;79.49;97357.64;593922;237;65191;-68
2022/06/04 02:11:32;;;;;;;;;;;;;;;23.29;79.65;97359.52;593905;237;68412;-68
2022/06/04 02:14:01;;;;;;;;;;;;;;;23.29;79.49;97362.20;593978;237;68522;-68
2022/06/04 02:16:35;;;;;;;;;;;;;;;23.30;79.47;97377.20;593842;237;65172;-68
2022/06/04 02:19:03;;;;;;;;;;;;;;;23.29;79.47;97379.09;593958;237;66048;-68
2022/06/04 02:21:31;;;;;;;;;;;;;;;23.29;79.53;97387.13;593912;237;66443;-68
2022/06/04 02:23:59;;;;;;;;;;;;;;;23.29;79.65;97397.86;593912;237;63079;-68
2022/06/04 02:26:27;;;;;;;;;;;;;;;23.29;79.58;97397.86;593914;237;66388;-68
2022/06/04 02:28:57;;;;;;;;;;;;;;;23.29;79.57;97413.16;593920;237;66327;-68
2022/06/04 02:31:29;;;;;;;;;;;;;;;23.29;79.64;97410.47;594002;237;63030;-68
2022/06/04 02:33:58;;;;;;;;;;;;;;;23.29;79.63;97413.95;593932;237;68120;-68
2022/06/04 02:36:30;;;;;;;;;;;;;;;23.30;79.62;97417.42;593867;237;68358;-73
2022/06/04 02:39:03;;;;;;;;;;;;;;;23.30;79.55;97425.47;593884;237;65160;-73
2022/06/04 02:41:32;;;;;;;;;;;;;;;23.30;79.60;97422.79;593975;237;66422;-73
2022/06/04 02:44:01;;;;;;;;;;;;;;;23.30;79.62;97428.16;593840;237;66283;-73
2022/06/04 02:46:30;;;;;;;;;;;;;;;23.29;79.62;97426.56;593954;237;63013;-73
2022/06/04 02:49:05;;;;;;;;;;;;;;;23.29;79.53;97443.45;593930;237;68318;-68
2022/06/04 02:51:34;;;;;;;;;;;;;;;23.29;79.50;97456.86;593835;237;66218;-68
2022/06/04 02:54:03;;;;;;;;;;;;;;;23.29;79.62;97453.38;593895;237;65468;-68
2022/06/04 02:56:34;;;;;;;;;;;;;;;23.29;79.65;97443.45;593877;237;68400;-68
2022/06/04 02:59:03;;;;;;;;;;;;;;;23.29;79.61;97434.61;593943;237;68287;-68
2022/06/04 03:01:32;;;;;;;;;;;;;;;23.28;79.64;97431.13;593988;237;65777;-68
2022/06/04 03:04:01;;;;;;;;;;;;;;;23.28;79.67;97438.38;593988;237;66303;-68
2022/06/04 03:06:32;;;;;;;;;;;;;;;23.28;79.71;97436.48;593891;237;68308;-68
2022/06/04 03:09:01;;;;;;;;;;;;;;;23.28;79.63;97452.58;593896;237;65784;-68
2022/06/04 03:11:29;;;;;;;;;;;;;;;23.29;79.63;97453.38;593950;237;68365;-67
2022/06/04 03:13:58;;;;;;;;;;;;;;;23.30;79.69;97454.97;593932;237;48304;-68
2022/06/04 03:16:27;;;;;;;;;;;;;;;23.29;79.71;97458.74;593883;237;65380;-68
2022/06/04 03:18:54;;;;;;;;;;;;;;;23.28;79.58;97457.94;593861;237;68372;-68
2022/06/04 03:21:22;;;;;;;;;;;;;;;23.28;79.68;97452.58;593970;237;65965;-68
2022/06/04 03:23:49;;;;;;;;;;;;;;;23.28;79.74;97451.78;594111;237;63962;-68
2022/06/04 03:26:17;;;;;;;;;;;;;;;23.28;79.79;97455.27;593925;237;68350;-68
2022/06/04 03:28:44;;;;;;;;;;;;;;;23.28;79.67;97457.15;593849;237;68610;-68
2022/06/04 03:31:12;;;;;;;;;;;;;;;23.28;79.73;97462.52;593970;237;65425;-68
2022/06/04 03:33:39;;;;;;;;;;;;;;;23.28;79.65;97462.52;593901;237;68375;-68
2022/06/04 03:36:08;;;;;;;;;;;;;;;23.28;79.73;97465.98;595559;237;68261;-68
2022/06/04 03:38:35;;;;;;;;;;;;;;;23.28;79.57;97463.30;596402;238;65486;-68
2022/06/04 03:41:03;;;;;;;;;;;;;;;23.29;79.64;97464.10;596342;238;68529;-68
2022/06/04 03:43:30;;;;;;;;;;;;;;;23.28;79.73;97462.52;596364;238;68298;-68
2022/06/04 03:45:58;;;;;;;;;;;;;;;23.26;79.71;97452.84;596378;238;65159;-68
2022/06/04 03:48:25;;;;;;;;;;;;;;;23.28;79.73;97438.38;596341;238;68092;-73
2022/06/04 03:50:53;;;;;;;;;;;;;;;23.28;79.70;97452.58;596391;238;66392;-72
2022/06/04 03:53:20;;;;;;;;;;;;;;;23.28;79.82;97446.42;596362;238;63108;-68
2022/06/04 03:55:48;;;;;;;;;;;;;;;23.29;79.82;97450.70;596363;238;66475;-68
2022/06/04 03:58:15;;;;;;;;;;;;;;;23.28;79.81;97451.78;596341;238;66166;-68
2022/06/04 04:00:45;;;;;;;;;;;;;;;23.26;79.70;97439.44;596323;238;63021;-68
2022/06/04 04:03:16;;;;;;;;;;;;;;;23.26;79.85;97436.75;596343;238;66296;-68
2022/06/04 04:05:48;;;;;;;;;;;;;;;23.27;79.82;97437.55;596413;238;66245;-72
2022/06/04 04:08:16;;;;;;;;;;;;;;;23.27;79.80;97437.55;596389;238;65487;-72
2022/06/04 04:10:45;;;;;;;;;;;;;;;23.26;79.87;97436.75;596305;238;66462;-73
2022/06/04 04:13:14;;;;;;;;;;;;;;;23.26;79.90;97428.70;596351;238;66217;-72
2022/06/04 04:15:42;;;;;;;;;;;;;;;23.26;79.79;97428.70;596369;238;62991;-72
2022/06/04 04:18:10;;;;;;;;;;;;;;;23.25;79.85;97435.16;596145;238;68354;-72
2022/06/04 04:20:39;;;;;;;;;;;;;;;23.26;79.78;97436.75;596325;238;68566;-72
2022/06/04 04:23:07;;;;;;;;;;;;;;;23.25;79.89;97435.16;596316;238;62948;-72
2022/06/04 04:25:36;;;;;;;;;;;;;;;23.26;79.93;97438.64;596354;238;68364;-72
2022/06/04 04:28:04;;;;;;;;;;;;;;;23.27;79.83;97445.59;596228;238;68263;-72
2022/06/04 04:30:33;;;;;;;;;;;;;;;23.25;79.97;97443.20;596355;238;65391;-72
2022/06/04 04:33:01;;;;;;;;;;;;;;;23.26;79.84;97444.00;596405;238;69362;-72
2022/06/04 04:35:30;;;;;;;;;;;;;;;23.25;79.85;97437.84;592894;238;67812;-72
2022/06/04 04:37:58;;;;;;;;;;;;;;;23.26;79.87;97426.03;588624;237;65429;-72
2022/06/04 04:40:27;;;;;;;;;;;;;;;23.26;79.86;97427.91;592823;236;68137;-72
2022/06/04 04:42:54;;;;;;;;;;;;;;;23.25;80.00;97427.12;589473;238;66397;-72
2022/06/04 04:45:23;;;;;;;;;;;;;;;23.26;79.98;97427.91;589283;237;65178;-72
2022/06/04 04:47:51;;;;;;;;;;;;;;;23.25;80.06;97426.31;589224;238;68249;-67
2022/06/04 04:50:20;;;;;;;;;;;;;;;23.26;79.85;97427.91;589187;237;68168;-68
2022/06/04 04:52:48;;;;;;;;;;;;;;;23.25;80.02;97427.12;589332;238;65380;-67
2022/06/04 04:55:16;;;;;;;;;;;;;;;23.25;79.97;97426.31;589220;236;68089;-68
2022/06/04 04:57:43;;;;;;;;;;;;;;;23.26;80.02;97422.55;589249;236;68458;-68
2022/06/04 05:00:12;;;;;;;;;;;;;;;23.25;80.01;97421.75;589144;237;65405;-72
2022/06/04 05:02:39;;;;;;;;;;;;;;;23.25;80.08;97426.31;589147;238;68209;-72
2022/06/04 05:05:07;;;;;;;;;;;;;;;23.25;80.05;97442.41;590074;236;66238;-72
2022/06/04 05:07:35;;;;;;;;;;;;;;;23.25;80.06;97445.88;589122;238;62999;-72
2022/06/04 05:10:02;;;;;;;;;;;;;;;23.25;80.04;97442.41;589222;236;68747;-72
2022/06/04 05:12:30;;;;;;;;;;;;;;;23.25;80.04;97443.20;589173;238;66222;-72
2022/06/04 05:14:57;;;;;;;;;;;;;;;23.25;80.01;97445.88;589464;237;65396;-72
2022/06/04 05:17:25;;;;;;;;;;;;;;;23.25;80.13;97451.25;595861;238;68293;-73
2022/06/04 05:19:52;;;;;;;;;;;;;;;23.25;80.08;97453.13;595826;238;68524;-72
2022/06/04 05:22:20;;;;;;;;;;;;;;;23.24;80.16;97436.25;595808;238;65453;-72
2022/06/04 05:24:48;;;;;;;;;;;;;;;23.24;80.07;97433.56;590843;238;68452;-72
2022/06/04 05:27:16;;;;;;;;;;;;;;;23.25;80.08;97437.05;589140;238;68322;-72
2022/06/04 05:29:44;;;;;;;;;;;;;;;23.24;80.05;97441.61;589128;237;65159;-73
2022/06/04 05:32:12;;;;;;;;;;;;;;;23.25;80.10;97437.84;589639;238;68367;-72
2022/06/04 05:34:39;;;;;;;;;;;;;;;23.24;80.11;97441.61;589146;238;68333;-72
2022/06/04 05:37:07;;;;;;;;;;;;;;;23.25;80.06;97437.05;589683;238;65368;-72
2022/06/04 05:39:35;;;;;;;;;;;;;;;23.25;80.04;97443.20;589166;238;68546;-72
2022/06/04 05:42:04;;;;;;;;;;;;;;;23.24;80.11;97441.61;589133;238;66213;-72
2022/06/04 05:44:32;;;;;;;;;;;;;;;23.24;80.15;97441.61;589225;237;65441;-72
2022/06/04 05:46:59;;;;;;;;;;;;;;;23.24;80.20;97444.30;589101;237;68426;-72
2022/06/04 05:49:27;;;;;;;;;;;;;;;23.25;80.26;97437.05;589113;240;68478;-73
2022/06/04 05:51:55;;;;;;;;;;;;;;;23.24;80.22;97443.47;589219;236;65453;-72
2022/06/04 05:54:22;;;;;;;;;;;;;;;23.24;80.22;97435.42;589137;238;66530;-72
2022/06/04 05:56:51;;;;;;;;;;;;;;;23.24;80.21;97430.06;589222;237;68797;-72
2022/06/04 05:59:20;;;;;;;;;;;;;;;23.22;80.26;97422.31;589295;238;65361;-72
2022/06/04 06:01:48;;;;;;;;;;;;;;;23.22;80.25;97419.63;589613;236;68678;-72
2022/06/04 06:04:17;;;;;;;;;;;;;;;23.24;80.20;97422.84;589321;238;66443;-72
2022/06/04 06:06:47;;;;;;;;;;;;;;;23.23;80.35;97428.47;589492;238;63032;-72
2022/06/04 06:09:16;;;;;;;;;;;;;;;23.22;80.27;97422.31;589082;237;68912;-73
2022/06/04 06:11:44;;;;;;;;;;;;;;;23.21;82.64;97423.36;589607;238;68472;-72
2022/06/04 06:14:12;;;;;;;;;;;;;;;23.21;81.74;97431.41;589221;236;63249;-72
2022/06/04 06:16:41;;;;;;;;;;;;;;;23.22;80.19;97426.88;589846;236;67123;-72
2022/06/04 06:19:08;;;;;;;;;;;;;;;23.24;80.16;97427.38;589361;238;66634;-72
2022/06/04 06:21:37;;;;;;;;;;;;;;;23.24;80.25;97420.16;589090;237;63104;-72
2022/06/04 06:24:05;;;;;;;;;;;;;;;23.26;80.12;97422.55;589204;236;69519;-72
2022/06/04 06:26:34;;;;;;;;;;;;;;;23.26;79.93;97423.34;589138;237;68565;-72
2022/06/04 06:29:02;;;;;;;;;;;;;;;23.26;80.02;97426.03;589321;236;65498;-72
2022/06/04 06:31:30;;;;;;;;;;;;;;;23.25;79.97;97424.44;589603;238;66536;-72
2022/06/04 06:33:57;;;;;;;;;;;;;;;23.26;79.93;97428.70;589236;236;66427;-72
2022/06/04 06:36:26;;;;;;;;;;;;;;;23.27;80.01;97432.19;596133;236;63204;-72
2022/06/04 06:38:54;;;;;;;;;;;;;;;23.27;80.19;97429.50;597725;237;68944;-72
2022/06/04 06:41:23;;;;;;;;;;;;;;;23.28;80.27;97430.33;597691;237;69454;-72
2022/06/04 06:43:51;;;;;;;;;;;;;;;23.28;80.44;97433.81;597709;237;65709;-72
2022/06/04 06:46:19;;;;;;;;;;;;;;;23.29;80.66;97431.92;597705;237;68577;-72
2022/06/04 06:48:48;;;;;;;;;;;;;;;23.29;80.75;97434.61;597715;237;68776;-72
2022/06/04 06:51:26;;;;;;;;;;;;;;;23.29;80.80;97429.24;597718;237;63015;-72
2022/06/04 06:53:56;;;;;;;;;;;;;;;23.29;80.92;97431.92;597740;237;69604;-72
2022/06/04 06:56:25;;;;;;;;;;;;;;;23.29;80.87;97423.88;597709;237;68721;-71
2022/06/04 06:58:53;;;;;;;;;;;;;;;23.29;81.09;97429.24;597722;237;65400;-68
2022/06/04 07:01:21;;;;;;;;;;;;;;;23.28;81.30;97425.77;597641;237;68834;-67
2022/06/04 07:03:49;;;;;;;;;;;;;;;23.30;81.37;97425.47;597662;237;66090;-68
2022/06/04 07:06:17;;;;;;;;;;;;;;;23.30;81.34;97422.79;597678;237;63173;-67
2022/06/04 07:08:47;;;;;;;;;;;;;;;23.29;81.16;97416.63;597621;237;50783;-68
2022/06/04 07:11:14;;;;;;;;;;;;;;;23.29;81.39;97413.95;597694;237;66743;-68
2022/06/04 07:13:41;;;;;;;;;;;;;;;23.30;81.30;97414.74;597701;237;64021;-68
2022/06/04 07:16:09;;;;;;;;;;;;;;;23.30;81.49;97415.57;597712;237;66280;-68
2022/06/04 07:18:38;;;;;;;;;;;;;;;23.30;81.46;97406.70;597658;237;68517;-67
2022/06/04 07:21:06;;;;;;;;;;;;;;;23.31;81.46;97411.00;597732;237;65255;-67
2022/06/04 07:23:35;;;;;;;;;;;;;;;23.30;81.59;97407.53;597654;237;68670;-67
2022/06/04 07:26:03;;;;;;;;;;;;;;;23.31;81.56;97397.59;597700;237;68772;-67
2022/06/04 07:28:32;;;;;;;;;;;;;;;23.31;81.67;97405.64;597715;237;65455;-67
2022/06/04 07:30:59;;;;;;;;;;;;;;;23.31;81.68;97400.28;597698;237;68455;-71
2022/06/04 07:33:27;;;;;;;;;;;;;;;23.31;81.76;97397.59;597704;237;69439;-71
2022/06/04 07:35:54;;;;;;;;;;;;;;;23.31;81.79;97400.28;592959;236;65157;-71
2022/06/04 07:38:22;;;;;;;;;;;;;;;23.31;81.84;97398.39;589063;240;66928;-71
2022/06/04 07:40:49;;;;;;;;;;;;;;;23.32;81.95;97393.83;589622;236;68783;-71
2022/06/04 07:43:17;;;;;;;;;;;;;;;23.32;81.79;97393.83;589260;238;65321;-71
2022/06/04 07:45:44;;;;;;;;;;;;;;;23.31;81.98;97387.66;589413;238;68594;-72
2022/06/04 07:48:12;;;;;;;;;;;;;;;23.31;81.86;97389.55;589924;238;68752;-71
2022/06/04 07:50:40;;;;;;;;;;;;;;;23.32;81.97;97385.78;589133;237;63261;-71
2022/06/04 07:53:08;;;;;;;;;;;;;;;23.32;81.94;97385.78;589461;238;69044;-71
2022/06/04 07:55:36;;;;;;;;;;;;;;;23.33;82.01;97379.36;589389;238;68743;-71
2022/06/04 07:58:04;;;;;;;;;;;;;;;23.32;81.98;97377.73;589212;236;63477;-67
2022/06/04 08:00:31;;;;;;;;;;;;;;;23.32;81.82;97391.14;589329;238;66472;-67
2022/06/04 08:03:01;;;;;;;;;;;;;;;23.33;82.05;97384.72;589242;237;66723;-67
2022/06/04 08:05:28;;;;;;;;;;;;;;;23.33;82.05;97384.72;589080;238;65605;-67
2022/06/04 08:07:56;;;;;;;;;;;;;;;23.33;81.99;97376.67;589137;237;68810;-67
2022/06/04 08:10:23;;;;;;;;;;;;;;;23.33;82.01;97371.31;589941;236;68630;-67
2022/06/04 08:12:57;;;;;;;;;;;;;;;23.33;81.99;97371.31;589165;237;65429;-67
2022/06/04 08:15:23;;;;;;;;;;;;;;;23.33;81.99;97374.79;589790;238;68929;-67
2022/06/04 08:17:50;;;;;;;;;;;;;;;23.33;82.02;97372.11;589177;237;68437;-67
2022/06/04 08:20:18;;;;;;;;;;;;;;;23.33;81.93;97361.38;589142;237;65456;-67
2022/06/04 08:22:46;;;;;;;;;;;;;;;23.33;81.85;97364.06;589111;237;68615;-67
2022/06/04 08:25:14;;;;;;;;;;;;;;;23.33;82.01;97364.06;589071;237;66712;-67
2022/06/04 08:27:41;;;;;;;;;;;;;;;23.34;82.02;97359.49;589159;237;65363;-67
2022/06/04 08:30:09;;;;;;;;;;;;;;;23.35;81.96;97361.09;589205;237;66702;-67
2022/06/04 08:32:36;;;;;;;;;;;;;;;23.34;81.89;97360.29;589113;237;68707;-67
2022/06/04 08:35:04;;;;;;;;;;;;;;;23.34;81.74;97354.92;589046;237;65350;-67
2022/06/04 08:37:32;;;;;;;;;;;;;;;23.34;81.72;97349.56;589129;237;68885;-67
2022/06/04 08:40:00;;;;;;;;;;;;;;;23.35;81.87;97350.36;589110;237;68253;-67
2022/06/04 08:42:33;;;;;;;;;;;;;;;23.35;81.77;97350.36;589132;237;63278;-67
2022/06/04 08:45:01;;;;;;;;;;;;;;;23.35;81.73;97342.31;589220;237;68017;-72
2022/06/04 08:47:33;;;;;;;;;;;;;;;23.35;81.57;97339.63;589091;237;68274;-72
2022/06/04 08:50:02;;;;;;;;;;;;;;;23.34;81.81;97328.11;589138;237;62983;-72
2022/06/04 08:52:31;;;;;;;;;;;;;;;23.36;81.82;97333.20;589677;237;68606;-72
2022/06/04 08:58:01;;;;;;;;;;;;;;;23.35;81.71;97327.02;589094;237;63111;-73
2022/06/04 09:00:33;;;;;;;;;;;;;;;23.35;81.73;97318.97;592560;237;68209;-73
2022/06/04 09:03:18;;;;;;;;;;;;;;;23.35;81.65;97324.34;590110;236;66316;-73
2022/06/04 09:05:47;;;;;;;;;;;;;;;23.35;81.73;97318.17;589113;237;63287;-72
2022/06/04 09:08:22;;;;;;;;;;;;;;;23.35;81.72;97312.81;589178;238;68643;-72
2022/06/04 09:10:53;;;;;;;;;;;;;;;23.35;81.61;97313.61;589167;237;68620;-72
2022/06/04 09:13:31;;;;;;;;;;;;;;;23.35;81.61;97307.45;589087;238;65446;-72
2022/06/04 09:16:00;;;;;;;;;;;;;;;23.35;81.64;97307.45;589158;238;66348;-73
2022/06/04 09:18:32;;;;;;;;;;;;;;;23.35;81.62;97308.24;589128;238;66427;-73
2022/06/04 09:21:01;;;;;;;;;;;;;;;23.35;81.52;97302.88;589362;237;63216;-73
2022/06/04 09:23:31;;;;;;;;;;;;;;;23.36;81.46;97311.75;589042;238;66819;-73
2022/06/04 09:26:15;;;;;;;;;;;;;;;23.36;81.69;97312.55;589253;238;66696;-73
2022/06/04 09:29:00;;;;;;;;;;;;;;;23.36;81.48;97307.19;589485;238;65216;-73
2022/06/04 09:31:32;;;;;;;;;;;;;;;23.36;81.43;97303.70;593442;238;68731;-73
2022/06/04 09:34:14;;;;;;;;;;;;;;;23.36;81.38;97303.70;592957;238;68409;-73
2022/06/04 09:36:44;;;;;;;;;;;;;;;23.37;81.51;97310.66;589121;237;65418;-72
2022/06/04 09:39:28;;;;;;;;;;;;;;;23.36;81.48;97309.07;589407;237;66441;-72
2022/06/04 09:42:03;;;;;;;;;;;;;;;23.36;81.45;97301.03;589027;237;68890;-73
2022/06/04 09:44:33;;;;;;;;;;;;;;;23.37;81.27;97302.62;594514;236;63230;-74
2022/06/04 09:47:03;;;;;;;;;;;;;;;23.37;81.40;97311.45;590793;237;68856;-74
2022/06/04 09:49:38;;;;;;;;;;;;;;;23.36;81.28;97301.03;588323;240;66469;-73
2022/06/04 09:52:27;;;;;;;;;;;;;;;23.37;81.18;97298.05;590026;238;63043;-73
2022/06/04 09:54:56;;;;;;;;;;;;;;;23.37;81.36;97291.89;589362;236;68711;-72
2022/06/04 09:57:28;;;;;;;;;;;;;;;23.37;81.27;97294.57;589269;236;68566;-72
2022/06/04 09:59:56;;;;;;;;;;;;;;;23.37;81.32;97283.84;589481;238;62980;-72
2022/06/04 10:02:24;;;;;;;;;;;;;;;23.38;81.41;97285.44;589369;238;66541;-72
2022/06/04 10:04:54;;;;;;;;;;;;;;;23.38;81.39;97288.11;589368;237;68916;-72
2022/06/04 10:07:23;;;;;;;;;;;;;;;23.37;81.28;97275.80;595707;238;65158;-72
2022/06/04 10:09:57;;;;;;;;;;;;;;;23.37;81.10;97279.27;593221;238;68905;-72
2022/06/04 10:15:19;;;;;;;;;;;;;;;23.38;81.28;97269.34;589099;237;65654;-72
2022/06/04 10:17:48;;;;;;;;;;;;;;;23.39;81.18;97268.28;589272;237;66190;-72
2022/06/04 10:20:20;;;;;;;;;;;;;;;23.38;81.12;97274.70;589394;238;68736;-72
2022/06/04 10:22:49;;;;;;;;;;;;;;;23.38;81.22;97269.34;589163;237;65314;-72
2022/06/04 10:25:25;;;;;;;;;;;;;;;23.38;81.28;97263.98;589229;237;66703;-72
2022/06/04 10:27:57;;;;;;;;;;;;;;;23.38;81.31;97254.08;589146;237;68566;-72
2022/06/04 10:30:26;;;;;;;;;;;;;;;23.39;80.98;97262.91;589949;238;65682;-72
2022/06/04 10:33:01;;;;;;;;;;;;;;;23.39;81.06;97254.87;589785;237;68629;-72
2022/06/04 10:35:36;;;;;;;;;;;;;;;23.39;80.96;97252.98;593533;236;69203;-71
2022/06/04 10:38:20;;;;;;;;;;;;;;;23.40;80.89;97256.46;595487;238;65352;-73
2022/06/04 10:41:07;;;;;;;;;;;;;;;23.40;80.94;97251.09;589239;237;66423;-72
2022/06/04 10:43:52;;;;;;;;;;;;;;;23.39;81.00;97250.30;593736;236;68527;-72
2022/06/04 10:46:34;;;;;;;;;;;;;;;23.40;80.89;97248.41;589360;237;65387;-72
2022/06/04 10:49:05;;;;;;;;;;;;;;;23.40;80.98;97240.37;589158;238;66161;-72
2022/06/04 10:51:38;;;;;;;;;;;;;;;23.40;80.97;97240.37;589099;237;68489;-72
2022/06/04 10:54:06;;;;;;;;;;;;;;;23.40;81.06;97235.00;589150;237;65454;-72
2022/06/04 10:56:47;;;;;;;;;;;;;;;23.41;80.84;97228.58;589440;237;66604;-72
2022/06/04 10:59:16;;;;;;;;;;;;;;;23.40;80.90;97232.33;589179;237;69048;-72
2022/06/04 11:01:54;;;;;;;;;;;;;;;23.40;80.82;97229.64;589324;237;65394;-72
2022/06/04 11:04:31;;;;;;;;;;;;;;;23.41;80.87;97231.26;589119;237;66717;-72
2022/06/04 11:07:00;;;;;;;;;;;;;;;23.41;80.81;97231.26;589149;238;68660;-72
2022/06/04 11:09:29;;;;;;;;;;;;;;;23.41;80.86;97223.22;589144;237;65333;-72
2022/06/04 11:11:58;;;;;;;;;;;;;;;23.41;80.95;97225.90;589117;238;66500;-72
2022/06/04 11:14:45;;;;;;;;;;;;;;;23.42;80.87;97222.12;589290;237;66473;-72
2022/06/04 11:17:17;;;;;;;;;;;;;;;23.41;80.80;97218.64;589176;237;65516;-72
2022/06/04 11:19:52;;;;;;;;;;;;;;;23.41;80.87;97207.12;589016;238;66307;-72
2022/06/04 11:22:21;;;;;;;;;;;;;;;23.42;80.67;97206.03;589228;237;66702;-72
2022/06/04 11:24:59;;;;;;;;;;;;;;;23.41;80.71;97201.76;589084;238;65472;-72
2022/06/04 11:27:43;;;;;;;;;;;;;;;23.42;80.68;97192.62;589208;237;66547;-72
2022/06/04 11:30:13;;;;;;;;;;;;;;;23.42;80.65;97189.94;589148;237;68639;-73
2022/06/04 11:32:48;;;;;;;;;;;;;;;23.41;80.65;97185.66;589210;237;65779;-68
2022/06/04 11:35:17;;;;;;;;;;;;;;;23.42;80.71;97182.69;589252;237;68815;-68
2022/06/04 11:38:03;;;;;;;;;;;;;;;23.43;80.63;97180.80;589087;237;68504;-68
2022/06/04 11:40:49;;;;;;;;;;;;;;;23.42;80.57;97179.20;589232;237;63518;-68
2022/06/04 11:43:24;;;;;;;;;;;;;;;23.43;80.73;97170.06;589128;238;69092;-67
2022/06/04 11:46:00;;;;;;;;;;;;;;;23.42;80.63;97174.64;589732;237;68704;-67
2022/06/04 11:48:44;;;;;;;;;;;;;;;23.42;80.66;97168.48;589237;237;65341;-67
2022/06/04 11:51:22;;;;;;;;;;;;;;;23.42;80.65;97166.59;589134;238;68753;-67
2022/06/04 11:53:54;;;;;;;;;;;;;;;23.41;80.59;97156.96;589122;237;68508;-68
2022/06/04 11:56:26;;;;;;;;;;;;;;;23.42;80.59;97163.91;589190;237;65438;-68
2022/06/04 11:59:07;;;;;;;;;;;;;;;23.42;80.55;97163.91;589128;237;66451;-69
2022/06/04 12:01:37;;;;;;;;;;;;;;;23.43;80.61;97162.81;593688;236;68586;-69
2022/06/04 12:04:09;;;;;;;;;;;;;;;23.43;80.54;97170.06;589875;237;65468;-69
2022/06/04 12:06:41;;;;;;;;;;;;;;;23.43;80.46;97164.70;589223;237;68814;-68
2022/06/04 12:09:16;;;;;;;;;;;;;;;23.43;80.52;97164.70;590150;237;68451;-68
2022/06/04 12:11:45;;;;;;;;;;;;;;;23.44;80.41;97166.32;589256;237;66341;-69
2022/06/04 12:14:14;;;;;;;;;;;;;;;23.44;80.44;97158.28;589120;238;68670;-69
2022/06/04 12:16:43;;;;;;;;;;;;;;;23.43;80.38;97151.30;589545;237;68907;-69
2022/06/04 12:25:04;;;;;;;;;;;;;;;23.44;80.37;97144.87;589044;238;68605;-74
2022/06/04 12:27:33;;;;;;;;;;;;;;;23.45;80.35;97147.25;589327;238;65285;-73
2022/06/04 12:30:01;;;;;;;;;;;;;;;23.44;80.35;97145.66;589446;237;66487;-73
2022/06/04 12:32:34;;;;;;;;;;;;;;;23.45;80.35;97146.45;589522;237;66647;-73
2022/06/04 12:35:03;;;;;;;;;;;;;;;23.45;80.31;97139.20;589069;238;65639;-71
2022/06/04 12:37:36;;;;;;;;;;;;;;;23.45;80.31;97136.52;589048;237;68481;-72
2022/06/04 12:40:23;;;;;;;;;;;;;;;23.45;80.33;97133.05;589557;237;66478;-73
2022/06/04 12:43:11;;;;;;;;;;;;;;;23.45;80.31;97125.80;589179;237;65373;-72
2022/06/04 12:45:40;;;;;;;;;;;;;;;23.46;80.27;97115.86;593844;236;68867;-72
2022/06/04 12:48:25;;;;;;;;;;;;;;;23.45;80.26;97116.95;592625;237;66499;-72
2022/06/04 12:50:54;;;;;;;;;;;;;;;23.45;80.18;97125.80;589273;237;63361;-72
2022/06/04 12:53:23;;;;;;;;;;;;;;;23.45;80.27;97115.06;589551;237;66641;-72
2022/06/04 12:55:54;;;;;;;;;;;;;;;23.46;80.13;97131.95;589398;237;66548;-72
2022/06/04 12:58:33;;;;;;;;;;;;;;;23.45;80.20;97125.80;589078;238;63219;-72
2022/06/04 13:01:02;;;;;;;;;;;;;;;23.46;80.17;97126.59;589205;237;66303;-72
2022/06/04 13:03:31;;;;;;;;;;;;;;;23.46;80.12;97138.14;589173;237;66446;-72
2022/06/04 13:06:16;;;;;;;;;;;;;;;23.47;80.21;97136.25;589387;238;63095;-72
2022/06/04 13:09:02;;;;;;;;;;;;;;;23.47;80.16;97126.31;593733;237;66381;-72
2022/06/04 13:11:32;;;;;;;;;;;;;;;23.47;80.11;97128.20;590020;237;68324;-72
2022/06/04 13:14:09;;;;;;;;;;;;;;;23.47;80.05;97128.20;589153;237;63273;-72
2022/06/04 13:16:38;;;;;;;;;;;;;;;23.47;80.07;97126.31;589271;238;68500;-72
2022/06/04 13:19:07;;;;;;;;;;;;;;;23.48;80.07;97124.42;589817;237;68410;-72
2022/06/04 13:21:37;;;;;;;;;;;;;;;23.47;80.07;97136.25;589185;237;65303;-72
2022/06/04 13:24:05;;;;;;;;;;;;;;;23.48;80.11;97119.06;589093;240;66119;-72